createdAt,value
2023-05-13T00:00:23.981Z,33.428571
2023-05-13T00:05:27.005Z,33.466667
2023-05-13T00:10:31.245Z,34.666667
2023-05-13T00:15:34.061Z,35.000000
2023-05-13T00:20:16.143Z,35.000000
2023-05-13T00:25:19.724Z,34.400000
2023-05-13T00:30:23.203Z,35.714286
2023-05-13T00:35:26.238Z,35.666667
2023-05-13T00:40:28.570Z,36.733333
2023-05-13T00:45:30.834Z,37.133333
2023-05-13T00:50:33.628Z,38.000000
2023-05-13T00:55:16.047Z,36.800000
2023-05-13T01:00:18.815Z,36.800000
2023-05-13T01:05:22.233Z,34.928571
2023-05-13T01:10:24.689Z,35.466667
2023-05-13T01:15:27.607Z,35.866667
2023-05-13T01:20:30.456Z,36.933333
2023-05-13T01:25:32.572Z,37.800000
2023-05-13T01:30:34.427Z,38.600000
2023-05-13T01:35:16.445Z,40.266667
2023-05-13T01:40:31.809Z,40.866667
2023-05-13T01:45:20.763Z,40.666667
2023-05-13T01:50:23.726Z,42.071429
2023-05-13T01:55:26.293Z,44.000000
2023-05-13T02:00:28.111Z,45.666667
2023-05-13T02:05:31.002Z,45.200000
2023-05-13T02:10:32.862Z,45.333333
2023-05-13T02:15:34.926Z,45.066667
2023-05-13T02:20:16.630Z,46.400000
2023-05-13T02:25:18.806Z,47.666667
2023-05-13T02:30:21.116Z,49.466667
2023-05-13T02:35:22.897Z,51.285714
2023-05-13T02:40:25.219Z,53.133333
2023-05-13T02:45:27.388Z,56.133333
2023-05-13T02:50:29.312Z,56.400000
2023-05-13T02:55:31.868Z,51.466667
2023-05-13T03:00:34.038Z,49.533333
2023-05-13T03:05:36.384Z,47.866667
2023-05-13T03:10:17.676Z,47.533333
2023-05-13T03:15:19.606Z,48.333333
2023-05-13T03:20:21.772Z,48.266667
2023-05-13T03:25:23.529Z,48.000000
2023-05-13T03:30:25.505Z,48.266667
2023-05-13T03:35:27.464Z,48.533333
2023-05-13T03:40:29.316Z,44.600000
2023-05-13T03:45:31.454Z,50.000000
2023-05-13T03:50:33.306Z,53.600000
2023-05-13T03:55:35.710Z,56.533333
2023-05-13T04:00:19.110Z,57.866667
2023-05-13T04:05:20.511Z,59.066667
2023-05-13T04:10:23.117Z,58.642857
2023-05-13T04:15:26.583Z,59.600000
2023-05-13T04:20:29.714Z,60.000000
2023-05-13T04:25:32.373Z,58.400000
2023-05-13T04:30:36.240Z,56.133333
2023-05-13T04:35:18.656Z,56.000000
2023-05-13T04:40:21.563Z,51.533333
2023-05-13T04:45:23.897Z,45.714286
2023-05-13T04:50:26.774Z,39.866667
2023-05-13T04:55:31.008Z,37.866667
2023-05-13T05:00:32.405Z,37.066667
2023-05-13T05:05:35.223Z,38.266667
2023-05-13T05:10:17.973Z,39.733333
2023-05-13T05:15:20.765Z,41.266667
2023-05-13T05:20:23.406Z,42.928571
2023-05-13T05:25:26.593Z,44.533333
2023-05-13T05:30:30.807Z,44.800000
2023-05-13T05:35:31.950Z,43.066667
2023-05-13T05:40:34.810Z,43.600000
2023-05-13T05:45:17.478Z,43.333333
2023-05-13T05:50:19.192Z,43.600000
2023-05-13T05:55:21.161Z,43.866667
2023-05-13T06:00:24.030Z,44.428571
2023-05-13T06:05:27.007Z,44.266667
2023-05-13T06:10:29.326Z,44.866667
2023-05-13T06:15:31.972Z,44.933333
2023-05-13T06:20:35.239Z,45.466667
2023-05-13T06:25:16.246Z,45.600000
2023-05-13T06:30:19.008Z,45.600000
2023-05-13T06:35:21.955Z,46.000000
2023-05-13T06:40:25.340Z,46.428571
2023-05-13T06:45:27.572Z,46.666667
2023-05-13T06:50:30.048Z,46.933333
2023-05-13T06:55:32.948Z,47.266667
2023-05-13T07:00:35.271Z,48.000000
2023-05-13T07:05:18.187Z,48.000000
2023-05-13T07:10:21.099Z,48.000000
2023-05-13T07:15:23.290Z,48.000000
2023-05-13T07:20:25.705Z,47.266667
2023-05-13T07:25:28.736Z,46.800000
2023-05-13T07:30:31.164Z,46.400000
2023-05-13T07:35:33.594Z,46.600000
2023-05-13T07:40:35.637Z,47.000000
2023-05-13T07:45:18.002Z,47.000000
2023-05-13T07:50:21.449Z,47.000000
2023-05-13T07:55:24.092Z,47.285714
2023-05-13T08:00:27.076Z,48.200000
2023-05-13T08:05:30.739Z,48.733333
2023-05-13T08:10:34.299Z,49.333333
2023-05-13T08:15:16.792Z,50.000000
2023-05-13T08:20:19.230Z,50.733333
2023-05-13T08:25:21.663Z,51.000000
2023-05-13T08:30:24.769Z,50.857143
2023-05-13T08:35:27.693Z,50.800000
2023-05-13T08:40:30.322Z,50.266667
2023-05-13T08:45:33.265Z,50.266667
2023-05-13T08:50:35.888Z,50.266667
2023-05-13T08:55:17.853Z,50.400000
2023-05-13T09:00:21.576Z,50.266667
2023-05-13T09:05:24.574Z,50.000000
2023-05-13T09:10:26.119Z,50.133333
2023-05-13T09:15:28.627Z,50.066667
2023-05-13T09:20:31.318Z,50.400000
2023-05-13T09:25:34.174Z,50.933333
2023-05-13T09:30:16.217Z,51.000000
2023-05-13T09:35:18.482Z,51.000000
2023-05-13T09:40:21.676Z,51.000000
2023-05-13T09:45:23.988Z,51.000000
2023-05-13T09:50:26.150Z,50.266667
2023-05-13T09:55:28.829Z,50.133333
2023-05-13T10:00:33.173Z,50.200000
2023-05-13T10:05:34.944Z,49.866667
2023-05-13T10:10:17.326Z,49.600000
2023-05-13T10:15:20.333Z,49.933333
2023-05-13T10:20:23.379Z,50.000000
2023-05-13T10:25:25.835Z,50.000000
2023-05-13T10:30:29.120Z,50.000000
2023-05-13T10:35:31.349Z,50.000000
2023-05-13T10:40:34.959Z,50.000000
2023-05-13T10:45:18.008Z,49.666667
2023-05-13T10:50:20.428Z,49.066667
2023-05-13T10:55:22.929Z,49.000000
2023-05-13T11:00:25.162Z,49.000000
2023-05-13T11:05:27.682Z,49.000000
2023-05-13T11:10:30.890Z,49.000000
2023-05-13T11:15:33.553Z,49.000000
2023-05-13T11:20:16.492Z,49.000000
2023-05-13T11:25:19.358Z,49.000000
2023-05-13T11:30:22.356Z,49.533333
2023-05-13T11:35:24.440Z,49.214286
2023-05-13T11:40:26.611Z,49.200000
2023-05-13T11:45:29.860Z,49.866667
2023-05-13T11:50:31.900Z,49.933333
2023-05-13T11:55:33.847Z,49.733333
2023-05-13T12:00:16.137Z,49.933333
2023-05-13T12:05:19.474Z,50.000000
2023-05-13T12:10:22.723Z,50.357143
2023-05-13T12:15:25.487Z,51.000000
2023-05-13T12:20:27.855Z,51.000000
2023-05-13T12:25:30.951Z,51.533333
2023-05-13T12:30:33.761Z,52.000000
2023-05-13T12:35:15.971Z,51.933333
2023-05-13T12:40:18.553Z,52.533333
2023-05-13T12:45:21.533Z,52.857143
2023-05-13T12:50:23.440Z,53.533333
2023-05-13T12:55:25.567Z,54.000000
2023-05-13T13:00:30.147Z,54.600000
2023-05-13T13:05:31.192Z,55.533333
2023-05-13T13:10:33.356Z,56.400000
2023-05-13T13:15:16.012Z,57.266667
2023-05-13T13:20:18.903Z,58.266667
2023-05-13T13:25:21.462Z,60.400000
2023-05-13T13:30:25.169Z,62.000000
2023-05-13T13:35:26.766Z,62.266667
2023-05-13T13:40:30.146Z,63.000000
2023-05-13T13:45:31.316Z,63.200000
2023-05-13T13:50:33.762Z,63.666667
2023-05-13T13:55:35.920Z,64.933333
2023-05-13T14:00:18.124Z,63.866667
2023-05-13T14:05:20.832Z,66.666667
2023-05-13T14:10:23.703Z,65.500000
2023-05-13T14:15:25.475Z,64.866667
2023-05-13T14:20:28.328Z,67.133333
2023-05-13T14:25:31.015Z,68.666667
2023-05-13T14:30:33.808Z,67.500000
2023-05-13T14:35:35.707Z,69.666667
2023-05-13T14:40:17.925Z,71.400000
2023-05-13T14:45:20.455Z,72.933333
2023-05-13T14:50:23.109Z,75.571429
2023-05-13T14:55:25.832Z,76.066667
2023-05-13T15:00:28.174Z,78.133333
2023-05-13T15:05:31.074Z,81.066667
2023-05-13T15:10:33.882Z,83.466667
2023-05-13T15:15:15.756Z,82.533333
2023-05-13T15:20:18.438Z,83.066667
2023-05-13T15:25:21.547Z,79.733333
2023-05-13T15:30:24.226Z,64.642857
2023-05-13T15:35:26.905Z,63.133333
2023-05-13T15:40:29.998Z,61.866667
2023-05-13T15:45:32.335Z,60.466667
2023-05-13T15:50:34.848Z,61.133333
2023-05-13T15:55:17.689Z,60.600000
2023-05-13T16:00:20.255Z,57.333333
2023-05-13T16:05:22.268Z,57.785714
2023-05-13T16:10:25.052Z,59.266667
2023-05-13T16:15:27.138Z,59.400000
2023-05-13T16:20:29.950Z,57.866667
2023-05-13T16:25:32.256Z,57.066667
2023-05-13T16:30:34.744Z,57.400000
2023-05-13T16:35:17.329Z,54.866667
2023-05-13T16:40:20.159Z,53.800000
2023-05-13T16:45:22.728Z,51.642857
2023-05-13T16:50:25.367Z,49.533333
2023-05-13T16:55:27.862Z,49.933333
2023-05-13T17:00:30.963Z,49.066667
2023-05-13T17:05:33.706Z,49.866667
2023-05-13T17:10:15.773Z,47.866667
2023-05-13T17:15:18.449Z,46.733333
2023-05-13T17:20:20.853Z,46.533333
2023-05-13T17:25:22.966Z,45.857143
2023-05-13T17:30:25.491Z,44.600000
2023-05-13T17:35:28.495Z,43.666667
2023-05-13T17:40:31.234Z,42.466667
2023-05-13T17:45:33.622Z,41.266667
2023-05-13T17:50:35.778Z,40.533333
2023-05-13T17:55:18.765Z,40.533333
2023-05-13T18:00:22.340Z,40.071429
2023-05-13T18:05:24.478Z,39.600000
2023-05-13T18:10:26.798Z,39.666667
2023-05-13T18:15:29.445Z,39.733333
2023-05-13T18:20:32.217Z,39.866667
2023-05-13T18:25:45.131Z,38.733333
2023-05-13T18:30:19.349Z,40.000000
2023-05-13T18:35:21.328Z,39.800000
2023-05-13T18:40:24.502Z,38.500000
2023-05-13T18:45:27.614Z,39.800000
2023-05-13T18:50:29.797Z,40.400000
2023-05-13T18:55:31.930Z,41.200000
2023-05-13T19:00:34.431Z,39.733333
2023-05-13T19:05:17.504Z,38.200000
2023-05-13T19:10:18.885Z,37.866667
2023-05-13T19:15:21.145Z,38.200000
2023-05-13T19:20:23.434Z,38.500000
2023-05-13T19:25:25.705Z,37.600000
2023-05-13T19:30:28.440Z,37.133333
2023-05-13T19:35:31.351Z,36.466667
2023-05-13T19:40:21.057Z,37.400000
2023-05-13T19:45:22.631Z,36.642857
2023-05-13T19:50:25.315Z,37.133333
2023-05-13T19:55:27.692Z,36.733333
2023-05-13T20:00:30.723Z,37.066667
2023-05-13T20:05:33.926Z,36.600000
2023-05-13T20:10:16.151Z,35.266667
2023-05-13T20:15:18.811Z,34.600000
2023-05-13T20:20:21.475Z,34.133333
2023-05-13T20:25:24.089Z,34.428571
2023-05-13T20:30:26.781Z,34.466667
2023-05-13T20:35:29.406Z,34.800000
2023-05-13T20:40:31.654Z,34.933333
2023-05-13T20:45:34.743Z,33.533333
2023-05-13T20:50:16.548Z,33.200000
2023-05-13T20:55:19.262Z,33.400000
2023-05-13T21:00:22.414Z,32.142857
2023-05-13T21:05:24.691Z,32.533333
2023-05-13T21:10:26.996Z,32.200000
2023-05-13T21:15:29.890Z,32.733333
2023-05-13T21:20:32.108Z,32.600000
2023-05-13T21:25:35.508Z,32.266667
2023-05-13T21:30:18.407Z,32.200000
2023-05-13T21:35:20.693Z,31.466667
2023-05-13T21:40:22.969Z,32.000000
2023-05-13T21:45:25.182Z,32.133333
2023-05-13T21:50:27.581Z,32.200000
2023-05-13T21:55:30.510Z,32.466667
2023-05-13T22:00:32.835Z,32.000000
2023-05-13T22:05:35.811Z,31.933333
2023-05-13T22:10:17.549Z,32.133333
2023-05-13T22:15:19.853Z,31.933333
2023-05-13T22:20:22.778Z,31.785714
2023-05-13T22:25:24.365Z,32.533333
2023-05-13T22:30:27.432Z,32.866667
2023-05-13T22:35:29.703Z,32.466667
2023-05-13T22:40:32.233Z,32.866667
2023-05-13T22:45:34.071Z,33.266667
2023-05-13T22:50:17.303Z,33.466667
2023-05-13T22:55:18.815Z,34.400000
2023-05-13T23:00:21.315Z,34.800000
2023-05-13T23:05:23.579Z,34.857143
2023-05-13T23:10:26.097Z,34.800000
2023-05-13T23:15:28.141Z,34.666667
2023-05-13T23:20:30.397Z,35.066667
2023-05-13T23:25:32.662Z,40.066667
2023-05-13T23:30:35.045Z,44.000000
2023-05-13T23:35:16.786Z,44.200000
2023-05-13T23:40:19.732Z,43.266667
2023-05-13T23:45:22.077Z,40.928571
2023-05-13T23:50:25.188Z,40.133333
2023-05-13T23:55:27.175Z,39.066667
